createdAt,value
2022-11-01T00:03:01.637Z,15.40
2022-11-01T00:09:04.159Z,15.50
2022-11-01T00:15:05.999Z,15.50
2022-11-01T00:21:07.716Z,15.50
2022-11-01T00:27:09.407Z,15.50
2022-11-01T00:33:11.084Z,15.30
2022-11-01T00:39:13.713Z,15.20
2022-11-01T00:45:15.398Z,15.30
2022-11-01T00:51:17.044Z,15.30
2022-11-01T00:57:18.728Z,15.40
2022-11-01T01:03:20.364Z,15.40
2022-11-01T01:09:22.589Z,15.30
2022-11-01T01:15:24.404Z,15.20
2022-11-01T01:21:26.061Z,15.20
2022-11-01T01:27:27.746Z,15.20
2022-11-01T01:33:29.395Z,15.10
2022-11-01T01:39:31.114Z,15.10
2022-11-01T01:45:35.064Z,15.10
2022-11-01T01:51:36.685Z,15.10
2022-11-01T01:57:38.624Z,15.20
2022-11-01T02:03:41.077Z,15.20
2022-11-01T02:09:43.195Z,15.20
2022-11-01T02:16:03.645Z,15.30
2022-11-01T02:22:17.978Z,15.20
2022-11-01T02:28:25.842Z,15.20
2022-11-01T02:34:50.703Z,15.20
2022-11-01T02:40:59.937Z,15.10
2022-11-01T02:47:02.379Z,15.20
2022-11-01T02:53:04.496Z,15.30
2022-11-01T02:59:09.571Z,15.50
2022-11-01T03:05:14.956Z,15.50
2022-11-01T03:11:17.871Z,15.50
2022-11-01T03:17:32.694Z,15.40
2022-11-01T03:23:41.644Z,15.30
2022-11-01T03:29:45.887Z,15.30
2022-11-01T03:35:49.645Z,15.20
2022-11-01T03:41:53.905Z,15.10
2022-11-01T03:47:55.576Z,15.10
2022-11-01T03:53:57.239Z,15.00
2022-11-01T03:59:58.868Z,15.00
2022-11-01T04:06:00.556Z,14.90
2022-11-01T04:12:02.542Z,15.00
2022-11-01T04:18:30.144Z,15.00
2022-11-01T04:24:31.883Z,15.10
2022-11-01T04:30:33.488Z,15.10
2022-11-01T04:36:37.066Z,15.20
2022-11-01T04:42:39.002Z,15.20
2022-11-01T04:48:40.674Z,15.20
2022-11-01T04:54:42.434Z,15.20
2022-11-01T05:00:44.232Z,15.10
2022-11-01T05:06:45.931Z,15.20
2022-11-01T05:12:47.578Z,15.20
2022-11-01T05:18:49.192Z,15.20
2022-11-01T05:24:50.875Z,15.20
2022-11-01T05:30:52.496Z,15.30
2022-11-01T05:36:54.136Z,15.40
2022-11-01T05:42:55.736Z,15.40
2022-11-01T05:48:57.351Z,15.40
2022-11-01T05:54:58.982Z,15.40
2022-11-01T06:01:01.595Z,15.30
2022-11-01T06:07:03.795Z,15.20
2022-11-01T06:13:05.740Z,15.10
2022-11-01T06:19:08.717Z,15.00
2022-11-01T06:25:10.522Z,15.10
2022-11-01T06:31:12.920Z,14.90
2022-11-01T06:37:14.732Z,14.90
2022-11-01T06:43:16.382Z,15.00
2022-11-01T06:49:19.220Z,15.20
2022-11-01T06:55:21.110Z,15.20
2022-11-01T07:01:25.024Z,15.30
2022-11-01T07:07:26.917Z,15.50
2022-11-01T07:13:33.835Z,15.50
2022-11-01T07:19:35.606Z,15.60
2022-11-01T07:25:37.243Z,15.70
2022-11-01T07:31:38.974Z,15.80
2022-11-01T07:37:40.609Z,15.90
2022-11-01T07:43:42.380Z,15.90
2022-11-01T07:49:44.252Z,16.00
2022-11-01T07:55:46.016Z,16.10
2022-11-01T08:01:47.725Z,16.20
2022-11-01T08:07:49.386Z,16.20
2022-11-01T08:13:50.997Z,16.20
2022-11-01T08:19:52.631Z,16.20
2022-11-01T08:25:54.230Z,16.30
2022-11-01T08:31:55.923Z,16.40
2022-11-01T08:37:59.149Z,16.40
2022-11-01T08:44:00.979Z,16.40
2022-11-01T08:50:04.869Z,16.30
2022-11-01T08:56:07.777Z,16.30
2022-11-01T09:02:11.717Z,16.20
2022-11-01T09:08:13.516Z,16.00
2022-11-01T09:14:15.117Z,15.90
2022-11-01T09:20:16.916Z,15.80
2022-11-01T09:26:18.871Z,15.90
2022-11-01T09:32:21.247Z,16.00
2022-11-01T09:38:22.895Z,16.10
2022-11-01T09:44:30.254Z,16.20
2022-11-01T09:50:34.451Z,16.50
2022-11-01T09:56:42.034Z,16.60
2022-11-01T10:02:45.211Z,16.70
2022-11-01T10:09:09.710Z,16.90
2022-11-01T10:15:19.424Z,16.80
2022-11-01T10:21:23.455Z,16.70
2022-11-01T10:27:46.203Z,16.80
2022-11-01T10:33:52.108Z,16.80
2022-11-01T10:39:58.963Z,16.90
2022-11-01T10:46:04.657Z,16.90
2022-11-01T10:52:08.315Z,17.10
2022-11-01T10:58:23.975Z,17.10
2022-11-01T11:04:26.216Z,16.90
2022-11-01T11:10:28.873Z,17.20
2022-11-01T11:16:42.847Z,17.10
2022-11-01T11:22:44.496Z,17.00
2022-11-01T11:28:47.900Z,17.10
2022-11-01T11:34:56.047Z,17.20
2022-11-01T11:40:57.740Z,17.40
2022-11-01T11:46:59.397Z,17.50
2022-11-01T11:53:03.106Z,17.60
2022-11-01T11:59:22.203Z,17.80
2022-11-01T12:05:26.572Z,17.80
2022-11-01T12:11:38.138Z,17.70
2022-11-01T12:17:46.885Z,17.50
2022-11-01T12:23:50.344Z,17.50
2022-11-01T12:30:01.093Z,17.60
2022-11-01T12:36:02.951Z,17.50
2022-11-01T12:42:05.461Z,17.70
2022-11-01T12:48:09.590Z,17.50
2022-11-01T12:54:21.951Z,17.60
2022-11-01T13:00:27.045Z,17.50
2022-11-01T13:06:47.537Z,17.20
2022-11-01T13:12:51.957Z,17.40
2022-11-01T13:19:01.026Z,17.50
2022-11-01T13:25:22.198Z,17.30
2022-11-01T13:31:28.237Z,17.10
2022-11-01T13:37:36.830Z,17.10
2022-11-01T13:43:41.916Z,16.90
2022-11-01T13:50:13.199Z,16.60
2022-11-01T13:56:21.651Z,16.60
2022-11-01T14:02:23.645Z,16.50
2022-11-01T14:08:27.171Z,16.40
2022-11-01T14:14:32.154Z,16.40
2022-11-01T14:20:43.155Z,16.30
2022-11-01T14:26:49.177Z,16.30
2022-11-01T14:32:54.727Z,16.20
2022-11-01T14:39:00.428Z,16.10
2022-11-01T14:45:06.060Z,16.00
2022-11-01T14:51:08.132Z,15.90
2022-11-01T14:57:20.168Z,15.90
2022-11-01T15:03:21.902Z,15.80
2022-11-01T15:09:24.677Z,15.70
2022-11-01T15:15:28.799Z,15.60
2022-11-01T15:21:32.340Z,15.50
2022-11-01T15:27:44.115Z,15.40
2022-11-01T15:33:56.478Z,15.30
2022-11-01T15:46:01.582Z,14.90
2022-11-01T15:52:05.463Z,14.90
2022-11-01T15:58:17.571Z,14.70
2022-11-01T16:04:20.129Z,14.60
2022-11-01T16:10:29.826Z,14.50
2022-11-01T16:16:50.191Z,14.50
2022-11-01T16:22:51.926Z,14.30
2022-11-01T16:28:54.767Z,14.20
2022-11-01T16:34:56.781Z,14.10
2022-11-01T16:41:15.239Z,14.10
2022-11-01T16:47:20.139Z,14.00
2022-11-01T16:53:22.870Z,14.10
2022-11-01T16:59:33.598Z,14.00
2022-11-01T17:05:35.339Z,13.90
2022-11-01T17:11:36.952Z,13.80
2022-11-01T17:17:39.478Z,13.90
2022-11-01T17:23:41.204Z,13.70
2022-11-01T17:29:43.159Z,13.70
2022-11-01T17:35:44.841Z,13.50
2022-11-01T17:41:46.671Z,13.50
2022-11-01T17:47:48.427Z,13.50
2022-11-01T17:53:54.115Z,13.40
2022-11-01T17:59:56.372Z,13.30
2022-11-01T18:05:58.590Z,13.20
2022-11-01T18:12:06.366Z,13.10
2022-11-01T18:18:26.172Z,13.10
2022-11-01T18:24:40.687Z,13.00
2022-11-01T18:30:44.153Z,13.00
2022-11-01T18:36:52.249Z,13.00
2022-11-01T18:42:54.733Z,13.10
2022-11-01T18:49:01.051Z,13.30
2022-11-01T18:55:11.363Z,13.30
2022-11-01T19:01:20.705Z,13.30
2022-11-01T19:07:23.727Z,13.30
2022-11-01T19:13:31.507Z,13.20
2022-11-01T19:19:34.731Z,13.00
2022-11-01T19:25:36.776Z,13.00
2022-11-01T19:31:38.903Z,12.90
2022-11-01T19:37:41.979Z,12.80
2022-11-01T19:43:43.578Z,13.00
2022-11-01T19:49:45.353Z,13.10
2022-11-01T19:55:50.980Z,13.20
2022-11-01T20:01:52.757Z,13.10
2022-11-01T20:08:06.548Z,13.00
2022-11-01T20:14:08.223Z,13.00
2022-11-01T20:20:10.072Z,12.90
2022-11-01T20:26:12.194Z,12.90
2022-11-01T20:32:13.887Z,12.90
2022-11-01T20:38:15.580Z,12.80
2022-11-01T20:44:17.325Z,12.70
2022-11-01T20:50:19.117Z,12.70
2022-11-01T20:56:20.729Z,12.60
2022-11-01T21:02:22.472Z,12.50
2022-11-01T21:08:27.987Z,12.40
2022-11-01T21:14:37.014Z,12.30
2022-11-01T21:20:39.811Z,12.40
2022-11-01T21:26:43.262Z,12.40
2022-11-01T21:32:45.538Z,12.30
2022-11-01T21:38:52.472Z,12.20
2022-11-01T21:44:55.389Z,12.20
2022-11-01T21:50:57.036Z,12.20
2022-11-01T21:56:58.698Z,12.20
2022-11-01T22:03:00.466Z,12.10
2022-11-01T22:09:02.239Z,12.00
2022-11-01T22:15:04.023Z,12.10
2022-11-01T22:21:05.700Z,12.00
2022-11-01T22:27:07.281Z,11.90
2022-11-01T22:33:11.088Z,12.00
2022-11-01T22:39:18.245Z,11.90
2022-11-01T22:45:19.830Z,11.80
2022-11-01T22:51:40.756Z,11.70
2022-11-01T22:57:47.873Z,11.80
2022-11-01T23:03:50.674Z,11.80
2022-11-01T23:09:52.645Z,11.80
2022-11-01T23:15:56.900Z,11.80
2022-11-01T23:21:58.462Z,11.90
2022-11-01T23:28:00.042Z,11.90
2022-11-01T23:34:01.979Z,11.90
2022-11-01T23:40:07.793Z,11.80
2022-11-01T23:46:09.820Z,11.80
2022-11-01T23:52:27.736Z,11.90
2022-11-01T23:58:30.958Z,11.90
